sensor_id;sensor_type;location;lat;lon;timestamp;temperature;humidity
16229;DHT22;8222;51.462;12.630;2023-05-27T00:00:23;11.00;99.90
16229;DHT22;8222;51.462;12.630;2023-05-27T00:02:51;11.00;99.90
16229;DHT22;8222;51.462;12.630;2023-05-27T00:05:16;10.90;99.90
16229;DHT22;8222;51.462;12.630;2023-05-27T00:07:42;10.90;99.90
16229;DHT22;8222;51.462;12.630;2023-05-27T00:10:13;10.80;99.90
16229;DHT22;8222;51.462;12.630;2023-05-27T00:12:41;10.90;99.90
16229;DHT22;8222;51.462;12.630;2023-05-27T00:15:07;11.00;99.90
16229;DHT22;8222;51.462;12.630;2023-05-27T00:17:33;10.90;99.90
16229;DHT22;8222;51.462;12.630;2023-05-27T00:20:00;11.00;99.90
16229;DHT22;8222;51.462;12.630;2023-05-27T00:22:33;10.90;99.90
16229;DHT22;8222;51.462;12.630;2023-05-27T00:25:04;10.80;99.90
16229;DHT22;8222;51.462;12.630;2023-05-27T00:27:31;10.70;99.90
16229;DHT22;8222;51.462;12.630;2023-05-27T00:29:56;10.80;99.90
16229;DHT22;8222;51.462;12.630;2023-05-27T00:32:22;10.70;99.90
16229;DHT22;8222;51.462;12.630;2023-05-27T00:34:48;10.80;99.90
16229;DHT22;8222;51.462;12.630;2023-05-27T00:37:13;10.70;99.90
16229;DHT22;8222;51.462;12.630;2023-05-27T00:39:39;10.60;99.90
16229;DHT22;8222;51.462;12.630;2023-05-27T00:42:06;10.70;99.90
16229;DHT22;8222;51.462;12.630;2023-05-27T00:44:35;10.60;99.90
16229;DHT22;8222;51.462;12.630;2023-05-27T00:47:02;10.60;99.90
16229;DHT22;8222;51.462;12.630;2023-05-27T00:49:34;10.70;99.90
16229;DHT22;8222;51.462;12.630;2023-05-27T00:52:04;10.70;99.90
16229;DHT22;8222;51.462;12.630;2023-05-27T00:54:32;10.70;99.90
16229;DHT22;8222;51.462;12.630;2023-05-27T00:56:58;10.60;99.90
16229;DHT22;8222;51.462;12.630;2023-05-27T00:59:24;10.40;99.90
16229;DHT22;8222;51.462;12.630;2023-05-27T01:01:52;10.30;99.90
16229;DHT22;8222;51.462;12.630;2023-05-27T01:04:18;10.30;99.90
16229;DHT22;8222;51.462;12.630;2023-05-27T01:12:26;10.10;99.90
16229;DHT22;8222;51.462;12.630;2023-05-27T01:14:57;10.10;99.90
16229;DHT22;8222;51.462;12.630;2023-05-27T01:17:26;10.00;99.90
16229;DHT22;8222;51.462;12.630;2023-05-27T01:19:54;10.00;99.90
16229;DHT22;8222;51.462;12.630;2023-05-27T01:22:20;10.00;99.90
16229;DHT22;8222;51.462;12.630;2023-05-27T01:24:49;10.00;99.90
16229;DHT22;8222;51.462;12.630;2023-05-27T01:27:21;10.00;99.90
16229;DHT22;8222;51.462;12.630;2023-05-27T01:29:52;10.00;99.90
16229;DHT22;8222;51.462;12.630;2023-05-27T01:32:26;10.10;99.90
16229;DHT22;8222;51.462;12.630;2023-05-27T01:35:06;10.00;99.90
16229;DHT22;8222;51.462;12.630;2023-05-27T01:37:37;9.90;99.90
16229;DHT22;8222;51.462;12.630;2023-05-27T01:40:07;9.80;99.90
16229;DHT22;8222;51.462;12.630;2023-05-27T01:42:40;9.70;99.90
16229;DHT22;8222;51.462;12.630;2023-05-27T01:45:12;9.70;99.90
16229;DHT22;8222;51.462;12.630;2023-05-27T01:47:43;9.70;99.90
16229;DHT22;8222;51.462;12.630;2023-05-27T01:50:14;9.80;99.90
16229;DHT22;8222;51.462;12.630;2023-05-27T01:52:42;9.70;99.90
16229;DHT22;8222;51.462;12.630;2023-05-27T01:55:11;9.60;99.90
16229;DHT22;8222;51.462;12.630;2023-05-27T01:57:39;9.50;99.90
16229;DHT22;8222;51.462;12.630;2023-05-27T02:00:05;9.50;99.90
16229;DHT22;8222;51.462;12.630;2023-05-27T02:02:35;9.40;99.90
16229;DHT22;8222;51.462;12.630;2023-05-27T02:05:04;9.30;99.90
16229;DHT22;8222;51.462;12.630;2023-05-27T02:07:30;9.30;99.90
16229;DHT22;8222;51.462;12.630;2023-05-27T02:09:55;9.20;99.90
16229;DHT22;8222;51.462;12.630;2023-05-27T02:12:21;9.20;99.90
16229;DHT22;8222;51.462;12.630;2023-05-27T02:14:49;9.10;99.90
16229;DHT22;8222;51.462;12.630;2023-05-27T02:17:16;9.20;99.90
16229;DHT22;8222;51.462;12.630;2023-05-27T02:19:47;9.20;99.90
16229;DHT22;8222;51.462;12.630;2023-05-27T02:22:14;9.30;99.90
16229;DHT22;8222;51.462;12.630;2023-05-27T02:24:43;9.30;99.90
16229;DHT22;8222;51.462;12.630;2023-05-27T02:27:13;9.50;99.90
16229;DHT22;8222;51.462;12.630;2023-05-27T02:29:39;9.80;99.90
16229;DHT22;8222;51.462;12.630;2023-05-27T02:32:05;9.30;99.90
16229;DHT22;8222;51.462;12.630;2023-05-27T02:34:31;9.30;99.90
16229;DHT22;8222;51.462;12.630;2023-05-27T02:37:01;9.30;99.90
16229;DHT22;8222;51.462;12.630;2023-05-27T02:39:27;9.30;99.90
16229;DHT22;8222;51.462;12.630;2023-05-27T02:41:53;9.50;99.90
16229;DHT22;8222;51.462;12.630;2023-05-27T02:44:21;9.00;99.90
16229;DHT22;8222;51.462;12.630;2023-05-27T02:46:49;8.80;99.90
16229;DHT22;8222;51.462;12.630;2023-05-27T02:49:15;8.70;99.90
16229;DHT22;8222;51.462;12.630;2023-05-27T02:51:43;8.60;99.90
16229;DHT22;8222;51.462;12.630;2023-05-27T02:54:09;8.60;99.90
16229;DHT22;8222;51.462;12.630;2023-05-27T02:56:34;8.50;99.90
16229;DHT22;8222;51.462;12.630;2023-05-27T02:59:00;8.50;99.90
16229;DHT22;8222;51.462;12.630;2023-05-27T03:01:26;8.50;99.90
16229;DHT22;8222;51.462;12.630;2023-05-27T03:03:54;8.50;99.90
16229;DHT22;8222;51.462;12.630;2023-05-27T03:06:20;8.50;99.90
16229;DHT22;8222;51.462;12.630;2023-05-27T03:08:45;9.00;99.90
16229;DHT22;8222;51.462;12.630;2023-05-27T03:11:14;8.50;99.90
16229;DHT22;8222;51.462;12.630;2023-05-27T03:13:39;8.50;99.90
16229;DHT22;8222;51.462;12.630;2023-05-27T03:16:07;8.50;99.90
16229;DHT22;8222;51.462;12.630;2023-05-27T03:18:35;8.50;99.90
16229;DHT22;8222;51.462;12.630;2023-05-27T03:21:01;8.50;99.90
16229;DHT22;8222;51.462;12.630;2023-05-27T03:23:29;8.60;99.90
16229;DHT22;8222;51.462;12.630;2023-05-27T03:25:55;8.70;99.90
16229;DHT22;8222;51.462;12.630;2023-05-27T03:28:26;8.70;99.90
16229;DHT22;8222;51.462;12.630;2023-05-27T03:30:52;8.80;99.90
16229;DHT22;8222;51.462;12.630;2023-05-27T03:33:22;8.90;99.90
16229;DHT22;8222;51.462;12.630;2023-05-27T03:35:48;8.90;99.90
16229;DHT22;8222;51.462;12.630;2023-05-27T03:38:14;8.90;99.90
16229;DHT22;8222;51.462;12.630;2023-05-27T03:40:39;8.90;99.90
16229;DHT22;8222;51.462;12.630;2023-05-27T03:43:05;8.90;99.90
16229;DHT22;8222;51.462;12.630;2023-05-27T03:45:33;9.10;99.90
16229;DHT22;8222;51.462;12.630;2023-05-27T03:48:01;9.20;99.90
16229;DHT22;8222;51.462;12.630;2023-05-27T03:50:31;9.20;99.90
16229;DHT22;8222;51.462;12.630;2023-05-27T03:52:59;9.40;99.90
16229;DHT22;8222;51.462;12.630;2023-05-27T03:55:26;9.30;99.90
16229;DHT22;8222;51.462;12.630;2023-05-27T03:57:51;9.40;99.90
16229;DHT22;8222;51.462;12.630;2023-05-27T04:00:17;9.60;99.90
16229;DHT22;8222;51.462;12.630;2023-05-27T04:02:43;9.70;99.90
16229;DHT22;8222;51.462;12.630;2023-05-27T04:05:08;10.00;99.90
16229;DHT22;8222;51.462;12.630;2023-05-27T04:07:34;10.10;99.90
16229;DHT22;8222;51.462;12.630;2023-05-27T04:10:02;10.20;99.90
16229;DHT22;8222;51.462;12.630;2023-05-27T04:12:28;10.30;99.90
16229;DHT22;8222;51.462;12.630;2023-05-27T04:14:54;10.30;99.90
16229;DHT22;8222;51.462;12.630;2023-05-27T04:17:21;10.40;99.90
16229;DHT22;8222;51.462;12.630;2023-05-27T04:19:47;10.50;99.90
16229;DHT22;8222;51.462;12.630;2023-05-27T04:22:14;10.50;99.90
16229;DHT22;8222;51.462;12.630;2023-05-27T04:24:40;10.70;99.90
16229;DHT22;8222;51.462;12.630;2023-05-27T04:27:06;10.70;99.90
16229;DHT22;8222;51.462;12.630;2023-05-27T04:29:35;10.60;99.90
16229;DHT22;8222;51.462;12.630;2023-05-27T04:32:06;10.70;99.90
16229;DHT22;8222;51.462;12.630;2023-05-27T04:34:34;10.80;99.90
16229;DHT22;8222;51.462;12.630;2023-05-27T04:37:02;10.90;99.90
16229;DHT22;8222;51.462;12.630;2023-05-27T04:39:30;10.90;99.90
16229;DHT22;8222;51.462;12.630;2023-05-27T04:41:56;11.00;99.90
16229;DHT22;8222;51.462;12.630;2023-05-27T04:44:22;11.10;99.90
16229;DHT22;8222;51.462;12.630;2023-05-27T04:46:48;11.10;99.90
16229;DHT22;8222;51.462;12.630;2023-05-27T04:49:16;11.20;99.90
16229;DHT22;8222;51.462;12.630;2023-05-27T04:51:47;11.30;99.90
16229;DHT22;8222;51.462;12.630;2023-05-27T04:54:15;11.30;99.90
16229;DHT22;8222;51.462;12.630;2023-05-27T04:56:41;11.30;99.90
16229;DHT22;8222;51.462;12.630;2023-05-27T04:59:07;11.30;99.90
16229;DHT22;8222;51.462;12.630;2023-05-27T05:01:42;11.30;99.90
16229;DHT22;8222;51.462;12.630;2023-05-27T05:04:37;11.50;99.90
16229;DHT22;8222;51.462;12.630;2023-05-27T05:07:06;11.50;99.90
16229;DHT22;8222;51.462;12.630;2023-05-27T05:09:32;11.50;99.90
16229;DHT22;8222;51.462;12.630;2023-05-27T05:12:00;11.60;99.90
16229;DHT22;8222;51.462;12.630;2023-05-27T05:14:28;11.70;99.90
16229;DHT22;8222;51.462;12.630;2023-05-27T05:16:54;11.80;99.90
16229;DHT22;8222;51.462;12.630;2023-05-27T05:19:19;11.80;99.90
16229;DHT22;8222;51.462;12.630;2023-05-27T05:21:45;12.00;99.90
16229;DHT22;8222;51.462;12.630;2023-05-27T05:24:13;12.00;99.90
16229;DHT22;8222;51.462;12.630;2023-05-27T05:26:39;11.90;99.90
16229;DHT22;8222;51.462;12.630;2023-05-27T05:29:10;12.00;99.90
16229;DHT22;8222;51.462;12.630;2023-05-27T05:31:38;12.00;99.90
16229;DHT22;8222;51.462;12.630;2023-05-27T05:34:06;12.10;99.90
16229;DHT22;8222;51.462;12.630;2023-05-27T05:36:33;12.20;99.90
16229;DHT22;8222;51.462;12.630;2023-05-27T05:39:00;12.30;99.90
16229;DHT22;8222;51.462;12.630;2023-05-27T05:41:26;12.50;99.90
16229;DHT22;8222;51.462;12.630;2023-05-27T05:43:52;12.50;99.90
16229;DHT22;8222;51.462;12.630;2023-05-27T05:46:17;12.60;99.90
16229;DHT22;8222;51.462;12.630;2023-05-27T05:48:43;12.70;99.90
16229;DHT22;8222;51.462;12.630;2023-05-27T05:51:13;12.90;99.90
16229;DHT22;8222;51.462;12.630;2023-05-27T05:53:39;13.10;99.90
16229;DHT22;8222;51.462;12.630;2023-05-27T05:56:07;13.30;99.90
16229;DHT22;8222;51.462;12.630;2023-05-27T05:58:33;13.50;99.90
16229;DHT22;8222;51.462;12.630;2023-05-27T06:00:59;13.60;99.90
16229;DHT22;8222;51.462;12.630;2023-05-27T06:03:26;13.70;99.90
16229;DHT22;8222;51.462;12.630;2023-05-27T06:05:51;13.80;99.90
16229;DHT22;8222;51.462;12.630;2023-05-27T06:08:21;14.00;99.90
16229;DHT22;8222;51.462;12.630;2023-05-27T06:10:47;14.30;99.90
16229;DHT22;8222;51.462;12.630;2023-05-27T06:13:13;14.40;99.90
16229;DHT22;8222;51.462;12.630;2023-05-27T06:15:38;14.50;99.90
16229;DHT22;8222;51.462;12.630;2023-05-27T06:18:04;14.80;99.90
16229;DHT22;8222;51.462;12.630;2023-05-27T06:20:30;14.80;99.90
16229;DHT22;8222;51.462;12.630;2023-05-27T06:22:56;14.70;99.90
16229;DHT22;8222;51.462;12.630;2023-05-27T06:25:21;14.70;99.90
16229;DHT22;8222;51.462;12.630;2023-05-27T06:27:47;14.80;99.90
16229;DHT22;8222;51.462;12.630;2023-05-27T06:30:13;14.90;99.90
16229;DHT22;8222;51.462;12.630;2023-05-27T06:32:41;15.20;99.90
16229;DHT22;8222;51.462;12.630;2023-05-27T06:35:12;15.30;99.90
16229;DHT22;8222;51.462;12.630;2023-05-27T06:37:40;15.50;99.90
16229;DHT22;8222;51.462;12.630;2023-05-27T06:40:06;15.60;99.90
16229;DHT22;8222;51.462;12.630;2023-05-27T06:42:35;15.60;99.90
16229;DHT22;8222;51.462;12.630;2023-05-27T06:45:00;15.80;99.90
16229;DHT22;8222;51.462;12.630;2023-05-27T06:47:26;15.80;99.90
16229;DHT22;8222;51.462;12.630;2023-05-27T06:49:54;15.80;99.90
16229;DHT22;8222;51.462;12.630;2023-05-27T06:52:23;16.10;99.90
16229;DHT22;8222;51.462;12.630;2023-05-27T06:54:49;16.40;99.90
16229;DHT22;8222;51.462;12.630;2023-05-27T06:57:15;16.50;99.90
16229;DHT22;8222;51.462;12.630;2023-05-27T06:59:40;16.80;99.90
16229;DHT22;8222;51.462;12.630;2023-05-27T07:02:06;16.80;99.90
16229;DHT22;8222;51.462;12.630;2023-05-27T07:04:33;16.80;99.90
16229;DHT22;8222;51.462;12.630;2023-05-27T07:07:02;16.90;99.90
16229;DHT22;8222;51.462;12.630;2023-05-27T07:09:27;17.20;99.90
16229;DHT22;8222;51.462;12.630;2023-05-27T07:11:56;17.30;99.90
16229;DHT22;8222;51.462;12.630;2023-05-27T07:14:21;17.40;99.90
16229;DHT22;8222;51.462;12.630;2023-05-27T07:16:47;17.40;99.90
16229;DHT22;8222;51.462;12.630;2023-05-27T07:19:15;17.30;99.90
16229;DHT22;8222;51.462;12.630;2023-05-27T07:21:43;17.40;99.90
16229;DHT22;8222;51.462;12.630;2023-05-27T07:24:08;17.20;99.90
16229;DHT22;8222;51.462;12.630;2023-05-27T07:26:34;17.30;99.90
16229;DHT22;8222;51.462;12.630;2023-05-27T07:29:05;17.40;99.90
16229;DHT22;8222;51.462;12.630;2023-05-27T07:31:35;17.50;99.90
16229;DHT22;8222;51.462;12.630;2023-05-27T07:34:01;17.50;99.90
16229;DHT22;8222;51.462;12.630;2023-05-27T07:36:29;17.60;99.90
16229;DHT22;8222;51.462;12.630;2023-05-27T07:38:55;17.80;99.90
16229;DHT22;8222;51.462;12.630;2023-05-27T07:41:20;17.60;99.90
16229;DHT22;8222;51.462;12.630;2023-05-27T07:43:46;17.50;99.90
16229;DHT22;8222;51.462;12.630;2023-05-27T07:46:16;17.80;99.90
16229;DHT22;8222;51.462;12.630;2023-05-27T07:48:42;17.90;99.90
16229;DHT22;8222;51.462;12.630;2023-05-27T07:51:08;18.00;99.90
16229;DHT22;8222;51.462;12.630;2023-05-27T07:53:33;17.90;99.90
16229;DHT22;8222;51.462;12.630;2023-05-27T07:55:59;17.70;99.90
16229;DHT22;8222;51.462;12.630;2023-05-27T07:58:28;17.70;99.90
16229;DHT22;8222;51.462;12.630;2023-05-27T08:00:53;18.00;99.90
16229;DHT22;8222;51.462;12.630;2023-05-27T08:03:19;17.90;99.90
16229;DHT22;8222;51.462;12.630;2023-05-27T08:05:50;18.00;99.90
16229;DHT22;8222;51.462;12.630;2023-05-27T08:08:16;18.00;99.90
16229;DHT22;8222;51.462;12.630;2023-05-27T08:10:41;17.90;99.90
16229;DHT22;8222;51.462;12.630;2023-05-27T08:13:07;17.90;99.90
16229;DHT22;8222;51.462;12.630;2023-05-27T08:15:35;18.10;99.90
16229;DHT22;8222;51.462;12.630;2023-05-27T08:18:01;18.30;99.90
16229;DHT22;8222;51.462;12.630;2023-05-27T08:20:29;18.50;99.90
16229;DHT22;8222;51.462;12.630;2023-05-27T08:23:00;18.80;99.90
16229;DHT22;8222;51.462;12.630;2023-05-27T08:25:28;18.80;99.90
16229;DHT22;8222;51.462;12.630;2023-05-27T08:27:54;18.70;99.90
16229;DHT22;8222;51.462;12.630;2023-05-27T08:30:30;18.80;99.90
16229;DHT22;8222;51.462;12.630;2023-05-27T08:32:58;18.60;99.90
16229;DHT22;8222;51.462;12.630;2023-05-27T08:35:24;18.50;99.90
16229;DHT22;8222;51.462;12.630;2023-05-27T08:37:52;18.40;99.90
16229;DHT22;8222;51.462;12.630;2023-05-27T08:40:18;18.40;99.90
16229;DHT22;8222;51.462;12.630;2023-05-27T08:42:46;18.60;99.90
16229;DHT22;8222;51.462;12.630;2023-05-27T08:45:17;18.90;99.90
16229;DHT22;8222;51.462;12.630;2023-05-27T08:47:45;19.10;99.90
16229;DHT22;8222;51.462;12.630;2023-05-27T08:50:11;19.10;99.90
16229;DHT22;8222;51.462;12.630;2023-05-27T08:52:52;19.10;99.90
16229;DHT22;8222;51.462;12.630;2023-05-27T08:55:21;19.20;99.90
16229;DHT22;8222;51.462;12.630;2023-05-27T08:57:51;19.00;99.90
16229;DHT22;8222;51.462;12.630;2023-05-27T09:00:17;19.10;99.90
16229;DHT22;8222;51.462;12.630;2023-05-27T09:02:43;19.00;99.90
16229;DHT22;8222;51.462;12.630;2023-05-27T09:05:10;19.10;99.90
16229;DHT22;8222;51.462;12.630;2023-05-27T09:07:37;19.30;99.90
16229;DHT22;8222;51.462;12.630;2023-05-27T09:10:05;19.10;99.90
16229;DHT22;8222;51.462;12.630;2023-05-27T09:12:41;19.30;99.90
16229;DHT22;8222;51.462;12.630;2023-05-27T09:15:07;19.30;99.90
16229;DHT22;8222;51.462;12.630;2023-05-27T09:17:42;19.50;99.40
16229;DHT22;8222;51.462;12.630;2023-05-27T09:20:11;19.90;99.90
16229;DHT22;8222;51.462;12.630;2023-05-27T09:22:38;20.20;98.40
16229;DHT22;8222;51.462;12.630;2023-05-27T09:25:08;20.20;93.90
16229;DHT22;8222;51.462;12.630;2023-05-27T09:27:42;20.20;97.50
16229;DHT22;8222;51.462;12.630;2023-05-27T09:30:10;20.00;97.40
16229;DHT22;8222;51.462;12.630;2023-05-27T09:32:37;19.70;99.90
16229;DHT22;8222;51.462;12.630;2023-05-27T09:35:05;19.60;98.20
16229;DHT22;8222;51.462;12.630;2023-05-27T09:37:34;19.70;99.00
16229;DHT22;8222;51.462;12.630;2023-05-27T09:40:04;20.10;98.40
16229;DHT22;8222;51.462;12.630;2023-05-27T09:42:40;20.20;98.80
16229;DHT22;8222;51.462;12.630;2023-05-27T09:47:47;20.00;93.60
16229;DHT22;8222;51.462;12.630;2023-05-27T09:50:17;20.10;91.80
16229;DHT22;8222;51.462;12.630;2023-05-27T09:52:44;20.00;93.40
16229;DHT22;8222;51.462;12.630;2023-05-27T09:55:14;20.00;93.10
16229;DHT22;8222;51.462;12.630;2023-05-27T09:57:40;20.30;93.10
16229;DHT22;8222;51.462;12.630;2023-05-27T10:00:10;20.60;93.40
16229;DHT22;8222;51.462;12.630;2023-05-27T10:02:45;21.00;92.30
16229;DHT22;8222;51.462;12.630;2023-05-27T10:05:12;21.30;90.00
16229;DHT22;8222;51.462;12.630;2023-05-27T10:07:43;21.50;86.30
16229;DHT22;8222;51.462;12.630;2023-05-27T10:10:10;21.30;86.40
16229;DHT22;8222;51.462;12.630;2023-05-27T10:12:41;21.20;84.70
16229;DHT22;8222;51.462;12.630;2023-05-27T10:15:26;21.10;84.60
16229;DHT22;8222;51.462;12.630;2023-05-27T10:17:58;21.30;89.50
16229;DHT22;8222;51.462;12.630;2023-05-27T10:20:38;21.50;90.10
16229;DHT22;8222;51.462;12.630;2023-05-27T10:23:13;21.60;84.00
16229;DHT22;8222;51.462;12.630;2023-05-27T10:25:48;21.40;81.60
16229;DHT22;8222;51.462;12.630;2023-05-27T10:28:34;21.30;82.60
16229;DHT22;8222;51.462;12.630;2023-05-27T10:31:16;21.20;84.10
16229;DHT22;8222;51.462;12.630;2023-05-27T10:33:49;21.20;87.60
16229;DHT22;8222;51.462;12.630;2023-05-27T10:36:26;21.60;82.30
16229;DHT22;8222;51.462;12.630;2023-05-27T10:41:35;21.70;82.70
16229;DHT22;8222;51.462;12.630;2023-05-27T10:44:05;21.90;85.90
16229;DHT22;8222;51.462;12.630;2023-05-27T10:46:43;22.10;84.20
16229;DHT22;8222;51.462;12.630;2023-05-27T10:49:23;22.30;86.90
16229;DHT22;8222;51.462;12.630;2023-05-27T10:51:53;22.60;83.50
16229;DHT22;8222;51.462;12.630;2023-05-27T10:54:19;22.60;79.30
16229;DHT22;8222;51.462;12.630;2023-05-27T10:56:49;22.70;81.00
16229;DHT22;8222;51.462;12.630;2023-05-27T10:59:24;22.80;75.30
16229;DHT22;8222;51.462;12.630;2023-05-27T11:02:03;22.90;79.50
16229;DHT22;8222;51.462;12.630;2023-05-27T11:04:37;22.80;77.80
16229;DHT22;8222;51.462;12.630;2023-05-27T11:07:06;22.90;72.70
16229;DHT22;8222;51.462;12.630;2023-05-27T11:09:44;22.50;72.00
16229;DHT22;8222;51.462;12.630;2023-05-27T11:12:19;22.30;74.00
16229;DHT22;8222;51.462;12.630;2023-05-27T11:14:47;22.20;74.50
16229;DHT22;8222;51.462;12.630;2023-05-27T11:17:17;22.30;76.50
16229;DHT22;8222;51.462;12.630;2023-05-27T11:19:45;22.30;74.40
16229;DHT22;8222;51.462;12.630;2023-05-27T11:22:15;22.30;74.00
16229;DHT22;8222;51.462;12.630;2023-05-27T11:24:42;22.40;72.00
16229;DHT22;8222;51.462;12.630;2023-05-27T11:27:12;22.80;75.70
16229;DHT22;8222;51.462;12.630;2023-05-27T11:32:39;23.20;71.80
16229;DHT22;8222;51.462;12.630;2023-05-27T11:35:19;23.40;71.00
16229;DHT22;8222;51.462;12.630;2023-05-27T11:37:51;23.60;70.50
16229;DHT22;8222;51.462;12.630;2023-05-27T11:40:20;23.70;66.80
16229;DHT22;8222;51.462;12.630;2023-05-27T11:42:46;23.30;68.10
16229;DHT22;8222;51.462;12.630;2023-05-27T11:45:19;23.00;67.50
16229;DHT22;8222;51.462;12.630;2023-05-27T11:47:51;22.80;68.30
16229;DHT22;8222;51.462;12.630;2023-05-27T11:50:21;23.20;69.30
16229;DHT22;8222;51.462;12.630;2023-05-27T11:53:16;23.30;69.90
16229;DHT22;8222;51.462;12.630;2023-05-27T11:55:50;23.40;67.00
16229;DHT22;8222;51.462;12.630;2023-05-27T11:58:39;23.00;68.80
16229;DHT22;8222;51.462;12.630;2023-05-27T12:01:08;22.90;71.00
16229;DHT22;8222;51.462;12.630;2023-05-27T12:10:36;22.90;68.80
16229;DHT22;8222;51.462;12.630;2023-05-27T12:13:25;23.40;70.20
16229;DHT22;8222;51.462;12.630;2023-05-27T12:19:15;23.80;66.90
16229;DHT22;8222;51.462;12.630;2023-05-27T12:21:41;23.50;66.70
16229;DHT22;8222;51.462;12.630;2023-05-27T12:24:13;23.40;67.20
16229;DHT22;8222;51.462;12.630;2023-05-27T12:26:52;23.60;68.50
16229;DHT22;8222;51.462;12.630;2023-05-27T12:29:26;23.80;67.10
16229;DHT22;8222;51.462;12.630;2023-05-27T12:32:18;23.90;67.10
16229;DHT22;8222;51.462;12.630;2023-05-27T12:34:52;23.90;65.90
16229;DHT22;8222;51.462;12.630;2023-05-27T12:37:24;24.00;65.60
16229;DHT22;8222;51.462;12.630;2023-05-27T12:43:14;24.00;63.90
16229;DHT22;8222;51.462;12.630;2023-05-27T12:45:49;23.80;66.60
16229;DHT22;8222;51.462;12.630;2023-05-27T12:52:03;23.10;65.90
16229;DHT22;8222;51.462;12.630;2023-05-27T12:58:42;23.70;63.90
16229;DHT22;8222;51.462;12.630;2023-05-27T13:04:43;23.90;62.60
16229;DHT22;8222;51.462;12.630;2023-05-27T13:10:50;23.90;65.40
16229;DHT22;8222;51.462;12.630;2023-05-27T13:20:22;24.20;61.90
16229;DHT22;8222;51.462;12.630;2023-05-27T13:36:18;23.80;60.70
16229;DHT22;8222;51.462;12.630;2023-05-27T13:39:26;23.80;61.20
16229;DHT22;8222;51.462;12.630;2023-05-27T13:52:23;23.10;63.70
16229;DHT22;8222;51.462;12.630;2023-05-27T13:55:37;23.10;62.80
16229;DHT22;8222;51.462;12.630;2023-05-27T15:17:34;25.80;53.10
16229;DHT22;8222;51.462;12.630;2023-05-27T15:20:59;25.60;53.80
16229;DHT22;8222;51.462;12.630;2023-05-27T15:23:39;26.20;53.80
16229;DHT22;8222;51.462;12.630;2023-05-27T15:26:27;26.50;52.10
16229;DHT22;8222;51.462;12.630;2023-05-27T15:33:10;26.40;52.90
16229;DHT22;8222;51.462;12.630;2023-05-27T15:35:47;26.60;50.00
16229;DHT22;8222;51.462;12.630;2023-05-27T15:59:23;27.00;48.80
16229;DHT22;8222;51.462;12.630;2023-05-27T16:01:57;27.20;49.00
16229;DHT22;8222;51.462;12.630;2023-05-27T16:04:34;27.40;49.10
16229;DHT22;8222;51.462;12.630;2023-05-27T16:07:09;27.70;47.90
16229;DHT22;8222;51.462;12.630;2023-05-27T16:09:37;27.40;48.30
16229;DHT22;8222;51.462;12.630;2023-05-27T16:12:08;27.30;49.40
16229;DHT22;8222;51.462;12.630;2023-05-27T16:14:37;27.50;51.00
16229;DHT22;8222;51.462;12.630;2023-05-27T16:17:02;27.80;49.30
16229;DHT22;8222;51.462;12.630;2023-05-27T16:22:31;28.10;49.50
16229;DHT22;8222;51.462;12.630;2023-05-27T16:24:56;28.30;48.10
16229;DHT22;8222;51.462;12.630;2023-05-27T16:27:24;28.50;48.40
16229;DHT22;8222;51.462;12.630;2023-05-27T16:29:51;28.60;48.00
16229;DHT22;8222;51.462;12.630;2023-05-27T16:32:17;28.80;46.30
16229;DHT22;8222;51.462;12.630;2023-05-27T16:34:47;29.00;47.60
16229;DHT22;8222;51.462;12.630;2023-05-27T16:37:18;29.00;47.60
16229;DHT22;8222;51.462;12.630;2023-05-27T16:39:52;29.20;47.10
16229;DHT22;8222;51.462;12.630;2023-05-27T16:42:34;29.10;46.30
16229;DHT22;8222;51.462;12.630;2023-05-27T16:45:06;28.80;46.30
16229;DHT22;8222;51.462;12.630;2023-05-27T16:50:47;28.40;46.50
16229;DHT22;8222;51.462;12.630;2023-05-27T16:53:24;28.50;45.90
16229;DHT22;8222;51.462;12.630;2023-05-27T16:55:52;28.20;45.20
16229;DHT22;8222;51.462;12.630;2023-05-27T16:58:18;28.70;45.40
16229;DHT22;8222;51.462;12.630;2023-05-27T17:00:58;28.60;45.60
16229;DHT22;8222;51.462;12.630;2023-05-27T17:03:35;28.40;45.40
16229;DHT22;8222;51.462;12.630;2023-05-27T17:06:03;28.30;45.60
16229;DHT22;8222;51.462;12.630;2023-05-27T17:08:29;28.00;45.90
16229;DHT22;8222;51.462;12.630;2023-05-27T17:11:00;28.20;45.80
16229;DHT22;8222;51.462;12.630;2023-05-27T17:13:30;28.60;45.40
16229;DHT22;8222;51.462;12.630;2023-05-27T17:15:58;28.40;45.20
16229;DHT22;8222;51.462;12.630;2023-05-27T17:18:45;28.40;46.10
16229;DHT22;8222;51.462;12.630;2023-05-27T17:21:14;28.50;46.70
16229;DHT22;8222;51.462;12.630;2023-05-27T17:23:43;28.80;46.50
16229;DHT22;8222;51.462;12.630;2023-05-27T17:26:08;28.70;45.50
16229;DHT22;8222;51.462;12.630;2023-05-27T17:28:34;28.60;45.80
16229;DHT22;8222;51.462;12.630;2023-05-27T17:31:05;28.70;46.40
16229;DHT22;8222;51.462;12.630;2023-05-27T17:33:30;29.00;46.80
16229;DHT22;8222;51.462;12.630;2023-05-27T17:35:59;29.10;45.60
16229;DHT22;8222;51.462;12.630;2023-05-27T17:38:25;29.10;45.00
16229;DHT22;8222;51.462;12.630;2023-05-27T17:40:54;29.30;45.30
16229;DHT22;8222;51.462;12.630;2023-05-27T17:43:23;29.40;45.30
16229;DHT22;8222;51.462;12.630;2023-05-27T17:45:49;29.20;45.10
16229;DHT22;8222;51.462;12.630;2023-05-27T17:48:21;28.90;45.30
16229;DHT22;8222;51.462;12.630;2023-05-27T17:50:46;28.80;45.60
16229;DHT22;8222;51.462;12.630;2023-05-27T17:53:14;28.70;45.20
16229;DHT22;8222;51.462;12.630;2023-05-27T17:55:40;28.80;46.00
16229;DHT22;8222;51.462;12.630;2023-05-27T17:58:09;28.70;46.10
16229;DHT22;8222;51.462;12.630;2023-05-27T18:00:38;28.60;45.90
16229;DHT22;8222;51.462;12.630;2023-05-27T18:03:09;28.40;45.60
16229;DHT22;8222;51.462;12.630;2023-05-27T18:05:35;28.40;46.50
16229;DHT22;8222;51.462;12.630;2023-05-27T18:08:00;28.30;45.20
16229;DHT22;8222;51.462;12.630;2023-05-27T18:10:30;28.20;46.30
16229;DHT22;8222;51.462;12.630;2023-05-27T18:12:58;28.30;47.40
16229;DHT22;8222;51.462;12.630;2023-05-27T18:15:24;28.00;46.60
16229;DHT22;8222;51.462;12.630;2023-05-27T18:17:54;27.90;47.80
16229;DHT22;8222;51.462;12.630;2023-05-27T18:20:20;27.70;47.20
16229;DHT22;8222;51.462;12.630;2023-05-27T18:22:48;27.40;48.00
16229;DHT22;8222;51.462;12.630;2023-05-27T18:25:13;26.90;48.10
16229;DHT22;8222;51.462;12.630;2023-05-27T18:27:39;26.10;49.10
16229;DHT22;8222;51.462;12.630;2023-05-27T18:30:06;25.30;49.40
16229;DHT22;8222;51.462;12.630;2023-05-27T18:32:45;24.80;51.10
16229;DHT22;8222;51.462;12.630;2023-05-27T18:35:12;24.20;52.20
16229;DHT22;8222;51.462;12.630;2023-05-27T18:37:37;23.60;52.80
16229;DHT22;8222;51.462;12.630;2023-05-27T18:40:06;23.10;53.50
16229;DHT22;8222;51.462;12.630;2023-05-27T18:42:32;22.80;54.00
16229;DHT22;8222;51.462;12.630;2023-05-27T18:44:58;22.40;54.90
16229;DHT22;8222;51.462;12.630;2023-05-27T18:47:26;22.30;55.70
16229;DHT22;8222;51.462;12.630;2023-05-27T18:49:56;22.00;56.90